Flight Track Log - Related Links

Times and Time Zones

All times are in EDT time to prevent confusion due to time zone crossing. See the N718FX flight status page for this flight to view local times or setup timezone preferences in your user account.

Time Position Orientation Groundspeed Altitude Reporting Facility
EDT Latitude Longitude Course Direction KTS MPH feet Rate Location/Type
Fri 09:43:00 AM 32.5394 -99.8975 303° West  Level FlightAware Approximate
Fri 09:44:00 AM 32.5658 -99.9325 320° Northwest  Level FlightAware Approximate
Fri 09:45:00 AM 32.5882 -99.9716 304° West  Level FlightAware Approximate
Fri 09:45:13 AM 32.6050 -99.9558 304° West 166 191 8,000  Level Fort Worth Center
Fri 09:46:00 AM 32.6104 -100.0111 304° West  Level FlightAware Approximate
Fri 09:46:13 AM 32.6333 -100.0036 305° West 166 191 8,000  Level Fort Worth Center
Fri 09:47:00 AM 32.6326 -100.0506 304° West  Level FlightAware Approximate
Fri 09:47:13 AM 32.6594 -100.0489 304° West 166 191 8,000  Level Fort Worth Center
Fri 09:48:00 AM 32.6547 -100.0900 304° West  Level FlightAware Approximate
Fri 09:48:13 AM 32.6856 -100.0939 305° West 166 191 8,000  Level Fort Worth Center
Fri 09:49:00 AM 32.6769 -100.1296 304° West  Level FlightAware Approximate
Fri 09:49:13 AM 32.7119 -100.1392 305° West 171 197 8,000  Level Fort Worth Center
Fri 09:50:00 AM 32.6990 -100.1691 304° West  Level FlightAware Approximate
Fri 09:50:13 AM 32.7361 -100.1794 306° West 171 197 8,000  Level Fort Worth Center
Fri 09:51:13 AM 32.7622 -100.2222 306° West 171 197 8,000  Level Fort Worth Center
Fri 09:52:13 AM 32.7864 -100.2650 304° West 171 197 8,000  Level Fort Worth Center
Fri 09:53:13 AM 32.8125 -100.3103 304° West 171 197 8,000  Level Fort Worth Center
Fri 09:54:13 AM 32.8364 -100.3531 304° West 171 197 8,000  Level Fort Worth Center
Fri 09:55:13 AM 32.8625 -100.3961 306° West 171 197 8,000  Level Fort Worth Center
Fri 09:56:13 AM 32.8886 -100.4414 304° West 171 197 8,000  Level Fort Worth Center
Fri 09:57:13 AM 32.9147 -100.4844 306° West 171 197 8,000  Level Fort Worth Center
Fri 09:58:13 AM 32.9367 -100.5272 301° West 166 191 8,000  Level Fort Worth Center
Fri 09:59:13 AM 32.9625 -100.5728 304° West 166 191 8,000  Level Fort Worth Center
Fri 10:00:13 AM 32.9886 -100.6133 308° West 166 191 8,000  Level Fort Worth Center
Fri 10:01:13 AM 33.0233 -100.6467 321° Northwest 161 185 8,000  Level Fort Worth Center
Fri 10:02:13 AM 33.0558 -100.6850 315° West 156 180 8,000  Level Fort Worth Center
Fri 10:03:13 AM 33.0881 -100.7258 313° West 156 180 8,000  Level Fort Worth Center
Fri 10:04:13 AM 33.1161 -100.7642 311° West 156 180 8,000  Level Fort Worth Center
Fri 10:05:13 AM 33.1464 -100.8025 313° West 156 180 8,000  Level Fort Worth Center
Fri 10:06:13 AM 33.1767 -100.8433 312° West 156 180 8,000  Level Fort Worth Center
Fri 10:06:47 AM 33.1908 -100.8664 306° West 161 185 8,000  Level Fort Worth Center
Fri 10:07:13 AM 33.2069 -100.8817 322° Northwest 161 185 8,000  Level Fort Worth Center
Fri 10:08:13 AM 33.2372 -100.9203 313° West 161 185 8,000  Level Fort Worth Center
Fri 10:09:12 AM 33.2608 -100.9708 299° West 173 199 8,000 50 Level Fort Worth Center
Fri 10:10:13 AM 33.2825 -101.0139 301° West 161 185 8,100 50 Climbing Fort Worth Center
Fri 10:11:13 AM 33.3022 -101.0519 302° West 166 191 8,100  Level Fort Worth Center
Fri 10:12:13 AM 33.3258 -101.1028 299° West 160 184 8,100  Level Fort Worth Center
Fri 10:13:13 AM 33.3475 -101.1433 303° West 165 190 8,100 50 Level Fort Worth Center
Fri 10:14:13 AM 33.3711 -101.1942 299° West 165 190 8,200  Climbing Fort Worth Center
Fri 10:15:13 AM 33.3928 -101.2350 302° West 165 190 8,100 -50 Descending Fort Worth Center
Fri 10:16:13 AM 33.4206 -101.2883 302° West 165 190 8,100  Level Fort Worth Center
Fri 10:17:13 AM 33.4358 -101.3339 292° West 165 190 8,100 -79 Level Fort Worth Center
Fri 10:17:29 AM 33.4414 -101.3514 291° West 167 192 8,000  Descending Fort Worth Center
Fri 10:18:13 AM 33.4592 -101.3872 301° West 165 190 8,100  Climbing Fort Worth Center
Fri 10:18:30 AM 33.4650 -101.3997 299° West 167 192 8,000  Descending Fort Worth Center
Fri 10:19:13 AM 33.4825 -101.4356 300° West 165 190 8,100 -233 Climbing Fort Worth Center
Fri 10:20:13 AM 33.5061 -101.4839 300° West 165 190 7,600 -451 Descending Fort Worth Center
Fri 10:21:26 AM 33.5311 -101.5450 296° West 175 201 7,100 -226 Descending Fort Worth Center
Fri 10:22:26 AM 33.5547 -101.5908 302° West 163 188 7,100 -298 Level Fort Worth Center
Fri 10:23:27 AM 33.5697 -101.6414 290° West 173 199 6,500 -569 Descending Fort Worth Center
Fri 10:24:22 AM 33.5719 -101.6964 273° West 180 207 6,000 -522 Descending Fort Worth Center
Fri 10:25:22 AM 33.5803 -101.7567 279° West 177 204 5,500 -397 Descending Fort Worth Center
Fri 10:26:23 AM 33.6036 -101.8100 298° West 173 199 5,200 -567 Descending Fort Worth Center
Fri 10:27:29 AM 33.6269 -101.8586 300° West 162 186 4,300 -661 Descending Fort Worth Center
Fri 10:28:30 AM 33.6564 -101.8528 North 102 117 3,800 -492 Descending Fort Worth Center
Fri 10:30:00 AM 33.6500 -101.8167 301° West  Level FlightAware Approximate
Fri 10:37:00 AM 33.6637 -101.8206 301° West  Level Estimated

Login

Don't have an account? Register now (free) for customized features, flight alerts, and more!